sensor_id;sensor_type;location;lat;lon;timestamp;P1;durP1;ratioP1;P2;durP2;ratioP2
73872;SDS011;62206;47.568;9.364;2022-10-04T07:07:16;9.43;;;5.10;;
73872;SDS011;62206;47.568;9.364;2022-10-04T11:56:30;8.45;;;6.95;;
73872;SDS011;62206;47.568;9.364;2022-10-04T12:34:50;9.70;;;7.53;;
73872;SDS011;62206;47.568;9.364;2022-10-04T12:37:30;10.75;;;7.25;;
73872;SDS011;62206;47.568;9.364;2022-10-04T12:40:33;10.32;;;8.48;;
73872;SDS011;62206;47.568;9.364;2022-10-04T12:43:08;10.52;;;7.68;;
73872;SDS011;62206;47.568;9.364;2022-10-04T12:45:54;11.18;;;8.38;;
73872;SDS011;62206;47.568;9.364;2022-10-04T12:48:36;15.18;;;6.80;;
73872;SDS011;62206;47.568;9.364;2022-10-04T12:51:21;9.13;;;7.55;;
73872;SDS011;62206;47.568;9.364;2022-10-04T12:53:57;8.30;;;6.97;;
73872;SDS011;62206;47.568;9.364;2022-10-04T12:56:41;8.90;;;7.38;;
73872;SDS011;62206;47.568;9.364;2022-10-04T12:59:19;9.57;;;7.88;;
73872;SDS011;62206;47.568;9.364;2022-10-04T13:01:56;13.52;;;8.25;;
73872;SDS011;62206;47.568;9.364;2022-10-04T13:04:32;8.00;;;7.20;;
73872;SDS011;62206;47.568;9.364;2022-10-04T13:07:14;8.88;;;7.95;;
73872;SDS011;62206;47.568;9.364;2022-10-04T13:10:16;10.02;;;8.45;;
73872;SDS011;62206;47.568;9.364;2022-10-04T13:16:18;9.95;;;8.20;;
73872;SDS011;62206;47.568;9.364;2022-10-04T13:18:54;9.93;;;8.73;;
73872;SDS011;62206;47.568;9.364;2022-10-04T13:21:45;10.95;;;9.32;;
73872;SDS011;62206;47.568;9.364;2022-10-04T13:24:48;9.52;;;8.60;;
73872;SDS011;62206;47.568;9.364;2022-10-04T13:27:37;11.02;;;8.30;;
73872;SDS011;62206;47.568;9.364;2022-10-04T13:30:14;13.23;;;9.55;;
73872;SDS011;62206;47.568;9.364;2022-10-04T13:32:51;11.50;;;9.23;;
73872;SDS011;62206;47.568;9.364;2022-10-04T13:35:38;12.48;;;10.43;;
73872;SDS011;62206;47.568;9.364;2022-10-04T13:38:57;14.10;;;10.00;;
73872;SDS011;62206;47.568;9.364;2022-10-04T14:17:22;11.23;;;8.52;;
73872;SDS011;62206;47.568;9.364;2022-10-04T14:32:22;11.10;;;8.82;;
73872;SDS011;62206;47.568;9.364;2022-10-04T14:53:48;12.23;;;9.57;;
73872;SDS011;62206;47.568;9.364;2022-10-04T14:59:36;10.75;;;8.18;;
73872;SDS011;62206;47.568;9.364;2022-10-04T15:02:43;13.25;;;8.73;;
73872;SDS011;62206;47.568;9.364;2022-10-04T15:05:33;14.10;;;9.07;;
73872;SDS011;62206;47.568;9.364;2022-10-04T15:08:27;15.23;;;8.57;;
73872;SDS011;62206;47.568;9.364;2022-10-04T15:11:18;16.08;;;9.25;;
73872;SDS011;62206;47.568;9.364;2022-10-04T15:13:59;12.88;;;8.90;;
73872;SDS011;62206;47.568;9.364;2022-10-04T15:16:32;11.52;;;9.07;;
73872;SDS011;62206;47.568;9.364;2022-10-04T15:19:06;9.77;;;8.07;;
73872;SDS011;62206;47.568;9.364;2022-10-04T15:21:46;12.75;;;8.88;;
73872;SDS011;62206;47.568;9.364;2022-10-04T15:24:24;11.40;;;9.77;;
73872;SDS011;62206;47.568;9.364;2022-10-04T15:27:16;12.35;;;8.63;;
73872;SDS011;62206;47.568;9.364;2022-10-04T15:30:21;10.05;;;8.52;;
73872;SDS011;62206;47.568;9.364;2022-10-04T15:32:54;9.63;;;8.63;;
73872;SDS011;62206;47.568;9.364;2022-10-04T15:35:40;10.10;;;7.93;;
73872;SDS011;62206;47.568;9.364;2022-10-04T15:38:17;18.55;;;7.97;;
73872;SDS011;62206;47.568;9.364;2022-10-04T15:40:56;11.18;;;8.80;;
73872;SDS011;62206;47.568;9.364;2022-10-04T15:43:29;12.05;;;8.60;;
73872;SDS011;62206;47.568;9.364;2022-10-04T15:46:09;12.52;;;8.85;;
73872;SDS011;62206;47.568;9.364;2022-10-04T15:49:12;12.55;;;8.05;;
73872;SDS011;62206;47.568;9.364;2022-10-04T15:51:48;10.50;;;7.68;;
73872;SDS011;62206;47.568;9.364;2022-10-04T15:57:51;8.60;;;7.03;;
73872;SDS011;62206;47.568;9.364;2022-10-04T16:00:40;10.70;;;8.90;;
73872;SDS011;62206;47.568;9.364;2022-10-04T16:03:19;11.10;;;9.50;;
73872;SDS011;62206;47.568;9.364;2022-10-04T16:37:35;11.88;;;10.30;;
73872;SDS011;62206;47.568;9.364;2022-10-04T16:40:17;18.27;;;11.20;;
73872;SDS011;62206;47.568;9.364;2022-10-04T16:42:53;10.98;;;8.30;;
73872;SDS011;62206;47.568;9.364;2022-10-04T16:45:35;13.52;;;9.75;;
73872;SDS011;62206;47.568;9.364;2022-10-04T16:48:12;9.98;;;8.93;;
73872;SDS011;62206;47.568;9.364;2022-10-04T16:50:51;12.98;;;11.02;;
73872;SDS011;62206;47.568;9.364;2022-10-04T16:53:41;10.70;;;8.63;;
73872;SDS011;62206;47.568;9.364;2022-10-04T16:56:20;10.13;;;9.13;;
73872;SDS011;62206;47.568;9.364;2022-10-04T16:58:50;9.88;;;8.88;;
73872;SDS011;62206;47.568;9.364;2022-10-04T17:04:27;10.02;;;8.52;;
73872;SDS011;62206;47.568;9.364;2022-10-04T17:07:17;12.20;;;9.05;;
73872;SDS011;62206;47.568;9.364;2022-10-04T17:09:53;11.30;;;9.63;;
73872;SDS011;62206;47.568;9.364;2022-10-04T17:12:28;10.48;;;9.32;;
73872;SDS011;62206;47.568;9.364;2022-10-04T17:15:19;15.07;;;10.80;;
73872;SDS011;62206;47.568;9.364;2022-10-04T17:17:59;13.23;;;10.60;;
73872;SDS011;62206;47.568;9.364;2022-10-04T17:20:43;12.90;;;10.02;;
73872;SDS011;62206;47.568;9.364;2022-10-04T17:23:18;13.27;;;8.70;;
73872;SDS011;62206;47.568;9.364;2022-10-04T17:25:58;10.07;;;8.88;;
73872;SDS011;62206;47.568;9.364;2022-10-04T17:28:32;11.80;;;9.43;;
73872;SDS011;62206;47.568;9.364;2022-10-04T17:31:06;9.80;;;8.80;;
73872;SDS011;62206;47.568;9.364;2022-10-04T17:33:43;13.15;;;11.65;;
73872;SDS011;62206;47.568;9.364;2022-10-04T17:36:24;15.40;;;10.15;;
73872;SDS011;62206;47.568;9.364;2022-10-04T17:39:06;12.35;;;10.35;;
73872;SDS011;62206;47.568;9.364;2022-10-04T17:41:48;14.73;;;12.93;;
73872;SDS011;62206;47.568;9.364;2022-10-04T17:44:30;48.28;;;40.30;;
73872;SDS011;62206;47.568;9.364;2022-10-04T17:47:04;37.95;;;33.97;;
73872;SDS011;62206;47.568;9.364;2022-10-04T17:49:36;26.73;;;23.92;;
73872;SDS011;62206;47.568;9.364;2022-10-04T17:52:32;25.23;;;20.85;;
73872;SDS011;62206;47.568;9.364;2022-10-04T17:55:25;24.35;;;21.73;;
73872;SDS011;62206;47.568;9.364;2022-10-04T17:57:57;26.75;;;24.02;;
73872;SDS011;62206;47.568;9.364;2022-10-04T18:00:44;26.35;;;22.48;;
73872;SDS011;62206;47.568;9.364;2022-10-04T20:28:38;17.50;;;11.65;;
73872;SDS011;62206;47.568;9.364;2022-10-04T20:34:45;14.95;;;12.15;;
73872;SDS011;62206;47.568;9.364;2022-10-04T20:40:55;14.65;;;12.48;;
73872;SDS011;62206;47.568;9.364;2022-10-04T20:43:54;12.93;;;11.50;;
73872;SDS011;62206;47.568;9.364;2022-10-04T20:46:28;12.88;;;10.95;;
73872;SDS011;62206;47.568;9.364;2022-10-04T20:49:03;12.88;;;10.65;;
73872;SDS011;62206;47.568;9.364;2022-10-04T20:51:47;15.18;;;12.13;;
73872;SDS011;62206;47.568;9.364;2022-10-04T20:54:26;16.45;;;10.93;;
73872;SDS011;62206;47.568;9.364;2022-10-04T20:57:11;13.13;;;10.52;;
73872;SDS011;62206;47.568;9.364;2022-10-04T20:59:45;14.60;;;11.43;;
73872;SDS011;62206;47.568;9.364;2022-10-04T21:02:22;13.88;;;10.07;;
